Northborough, Massachusetts
Current Conditions -  °F | °C
As of 2:54 PM on Friday 19 Dec 2014 (Local Time) from KORH Reporting Station
Overcast Overcast  
Wind Chill: 20°   Ceiling: 2300
Heat Index: 30°   Visibility: 10mi
Dew Point: 20°   Wind: 14mph
Humidity: 66%   Direction: 320°NW
Pressure: 29.95"   Gusts: NA
Location:  42.32°N, 71.64°W
Report Text: KORH 191954Z 32012KT 10SM OVC023 M01/M07 A2995 RMK AO2 SLP153 T10111067
Loading
Personal Weather Stations






























Interactive Weather Map New forecast layout! Learn more

10-Day Weather Forecast

Advertisements
Track Severe Weather on mobile